sensor_id;sensor_type;location;lat;lon;timestamp;temperature;humidity
35603;DHT22;21725;50.836;4.368;2024-01-30T00:00:54;14.10;99.90
35603;DHT22;21725;50.836;4.368;2024-01-30T00:03:57;14.20;99.90
35603;DHT22;21725;50.836;4.368;2024-01-30T00:06:58;14.20;99.90
35603;DHT22;21725;50.836;4.368;2024-01-30T00:09:59;14.20;99.90
35603;DHT22;21725;50.836;4.368;2024-01-30T00:13:01;14.20;99.90
35603;DHT22;21725;50.836;4.368;2024-01-30T00:16:05;14.10;99.90
35603;DHT22;21725;50.836;4.368;2024-01-30T00:19:09;14.00;99.90
35603;DHT22;21725;50.836;4.368;2024-01-30T00:22:19;13.10;99.90
35603;DHT22;21725;50.836;4.368;2024-01-30T00:25:25;14.10;99.90
35603;DHT22;21725;50.836;4.368;2024-01-30T00:28:29;14.10;99.90
35603;DHT22;21725;50.836;4.368;2024-01-30T00:31:35;13.70;99.90
35603;DHT22;21725;50.836;4.368;2024-01-30T00:34:39;12.70;99.90
35603;DHT22;21725;50.836;4.368;2024-01-30T00:37:43;14.00;99.90
35603;DHT22;21725;50.836;4.368;2024-01-30T00:40:44;14.20;99.90
35603;DHT22;21725;50.836;4.368;2024-01-30T00:43:49;14.20;99.90
35603;DHT22;21725;50.836;4.368;2024-01-30T00:46:54;12.00;99.90
35603;DHT22;21725;50.836;4.368;2024-01-30T00:49:58;14.30;99.90
35603;DHT22;21725;50.836;4.368;2024-01-30T00:53:01;14.30;99.90
35603;DHT22;21725;50.836;4.368;2024-01-30T00:56:04;14.30;99.90
35603;DHT22;21725;50.836;4.368;2024-01-30T00:59:07;12.50;99.90
35603;DHT22;21725;50.836;4.368;2024-01-30T01:02:10;13.60;99.90
35603;DHT22;21725;50.836;4.368;2024-01-30T01:05:14;14.10;99.90
35603;DHT22;21725;50.836;4.368;2024-01-30T01:08:21;14.20;99.90
35603;DHT22;21725;50.836;4.368;2024-01-30T01:11:25;13.30;99.90
35603;DHT22;21725;50.836;4.368;2024-01-30T01:14:28;14.10;99.90
35603;DHT22;21725;50.836;4.368;2024-01-30T01:24:53;14.40;99.90
35603;DHT22;21725;50.836;4.368;2024-01-30T01:43:46;14.30;99.90
35603;DHT22;21725;50.836;4.368;2024-01-30T01:46:47;14.40;99.90
35603;DHT22;21725;50.836;4.368;2024-01-30T01:49:50;14.10;99.90
35603;DHT22;21725;50.836;4.368;2024-01-30T01:52:55;12.20;99.90
35603;DHT22;21725;50.836;4.368;2024-01-30T01:55:57;13.30;99.90
35603;DHT22;21725;50.836;4.368;2024-01-30T01:59:03;14.50;99.90
35603;DHT22;21725;50.836;4.368;2024-01-30T02:02:07;14.70;99.90
35603;DHT22;21725;50.836;4.368;2024-01-30T02:05:16;14.10;99.90
35603;DHT22;21725;50.836;4.368;2024-01-30T02:08:17;14.30;99.90
35603;DHT22;21725;50.836;4.368;2024-01-30T02:11:21;13.90;99.90
35603;DHT22;21725;50.836;4.368;2024-01-30T02:14:47;14.50;99.90
35603;DHT22;21725;50.836;4.368;2024-01-30T02:17:50;13.10;99.90
35603;DHT22;21725;50.836;4.368;2024-01-30T02:20:54;16.60;99.90
35603;DHT22;21725;50.836;4.368;2024-01-30T02:24:03;14.40;99.90
35603;DHT22;21725;50.836;4.368;2024-01-30T02:27:04;14.50;99.90
35603;DHT22;21725;50.836;4.368;2024-01-30T02:30:06;14.50;99.90
35603;DHT22;21725;50.836;4.368;2024-01-30T02:33:08;14.30;99.90
35603;DHT22;21725;50.836;4.368;2024-01-30T02:36:09;14.30;99.90
35603;DHT22;21725;50.836;4.368;2024-01-30T02:39:17;14.50;99.90
35603;DHT22;21725;50.836;4.368;2024-01-30T02:42:18;13.10;99.90
35603;DHT22;21725;50.836;4.368;2024-01-30T02:45:21;14.10;99.90
35603;DHT22;21725;50.836;4.368;2024-01-30T02:48:22;14.30;99.90
35603;DHT22;21725;50.836;4.368;2024-01-30T02:51:24;13.00;99.90
35603;DHT22;21725;50.836;4.368;2024-01-30T02:54:25;14.50;99.90
35603;DHT22;21725;50.836;4.368;2024-01-30T02:57:27;14.60;99.90
35603;DHT22;21725;50.836;4.368;2024-01-30T03:00:30;14.20;99.90
35603;DHT22;21725;50.836;4.368;2024-01-30T03:03:31;14.70;99.90
35603;DHT22;21725;50.836;4.368;2024-01-30T03:06:33;14.60;99.90
35603;DHT22;21725;50.836;4.368;2024-01-30T03:09:34;14.30;99.90
35603;DHT22;21725;50.836;4.368;2024-01-30T03:12:36;14.30;99.90
35603;DHT22;21725;50.836;4.368;2024-01-30T03:15:38;12.70;99.90
35603;DHT22;21725;50.836;4.368;2024-01-30T03:18:40;13.80;99.90
35603;DHT22;21725;50.836;4.368;2024-01-30T03:21:41;15.30;99.90
35603;DHT22;21725;50.836;4.368;2024-01-30T03:24:42;13.50;99.90
35603;DHT22;21725;50.836;4.368;2024-01-30T03:27:43;14.60;99.90
35603;DHT22;21725;50.836;4.368;2024-01-30T03:30:44;14.60;99.90
35603;DHT22;21725;50.836;4.368;2024-01-30T03:33:49;15.30;99.90
35603;DHT22;21725;50.836;4.368;2024-01-30T03:36:51;14.60;99.90
35603;DHT22;21725;50.836;4.368;2024-01-30T03:39:52;14.60;99.90
35603;DHT22;21725;50.836;4.368;2024-01-30T03:42:53;14.50;99.90
35603;DHT22;21725;50.836;4.368;2024-01-30T03:45:54;14.30;99.90
35603;DHT22;21725;50.836;4.368;2024-01-30T03:48:57;14.70;99.90
35603;DHT22;21725;50.836;4.368;2024-01-30T04:04:45;14.70;99.90
35603;DHT22;21725;50.836;4.368;2024-01-30T04:07:46;14.50;99.90
35603;DHT22;21725;50.836;4.368;2024-01-30T04:10:47;13.70;99.90
35603;DHT22;21725;50.836;4.368;2024-01-30T04:13:51;16.80;99.90
35603;DHT22;21725;50.836;4.368;2024-01-30T04:17:21;16.00;99.90
35603;DHT22;21725;50.836;4.368;2024-01-30T04:20:22;14.50;99.90
35603;DHT22;21725;50.836;4.368;2024-01-30T04:23:23;14.30;99.90
35603;DHT22;21725;50.836;4.368;2024-01-30T04:26:26;15.80;99.90
35603;DHT22;21725;50.836;4.368;2024-01-30T04:29:27;14.70;99.90
35603;DHT22;21725;50.836;4.368;2024-01-30T04:32:48;14.30;99.90
35603;DHT22;21725;50.836;4.368;2024-01-30T04:35:49;13.80;99.90
35603;DHT22;21725;50.836;4.368;2024-01-30T04:38:56;14.10;99.90
35603;DHT22;21725;50.836;4.368;2024-01-30T04:42:01;13.80;99.90
35603;DHT22;21725;50.836;4.368;2024-01-30T04:45:05;14.70;99.90
35603;DHT22;21725;50.836;4.368;2024-01-30T04:48:08;14.70;99.90
35603;DHT22;21725;50.836;4.368;2024-01-30T04:51:10;13.20;99.90
35603;DHT22;21725;50.836;4.368;2024-01-30T04:54:22;14.60;99.90
35603;DHT22;21725;50.836;4.368;2024-01-30T04:57:24;14.50;99.90
35603;DHT22;21725;50.836;4.368;2024-01-30T05:00:31;14.20;99.90
35603;DHT22;21725;50.836;4.368;2024-01-30T05:03:36;14.40;99.90
35603;DHT22;21725;50.836;4.368;2024-01-30T05:06:38;14.60;99.90
35603;DHT22;21725;50.836;4.368;2024-01-30T05:13:34;12.90;99.90
35603;DHT22;21725;50.836;4.368;2024-01-30T05:16:36;13.60;99.90
35603;DHT22;21725;50.836;4.368;2024-01-30T05:19:40;14.80;99.90
35603;DHT22;21725;50.836;4.368;2024-01-30T05:22:44;13.20;99.90
35603;DHT22;21725;50.836;4.368;2024-01-30T05:25:45;14.50;99.90
35603;DHT22;21725;50.836;4.368;2024-01-30T05:28:48;14.10;99.90
35603;DHT22;21725;50.836;4.368;2024-01-30T05:31:52;14.50;99.90
35603;DHT22;21725;50.836;4.368;2024-01-30T05:34:53;14.70;99.90
35603;DHT22;21725;50.836;4.368;2024-01-30T05:37:57;14.40;99.90
35603;DHT22;21725;50.836;4.368;2024-01-30T05:41:08;14.70;99.90
35603;DHT22;21725;50.836;4.368;2024-01-30T05:44:14;13.10;99.90
35603;DHT22;21725;50.836;4.368;2024-01-30T05:47:27;13.70;99.90
35603;DHT22;21725;50.836;4.368;2024-01-30T05:50:59;13.80;99.90
35603;DHT22;21725;50.836;4.368;2024-01-30T05:57:24;14.70;99.90
35603;DHT22;21725;50.836;4.368;2024-01-30T06:00:27;14.80;99.90
35603;DHT22;21725;50.836;4.368;2024-01-30T06:03:33;17.30;99.90
35603;DHT22;21725;50.836;4.368;2024-01-30T06:06:37;14.50;99.90
35603;DHT22;21725;50.836;4.368;2024-01-30T06:09:38;14.30;99.90
35603;DHT22;21725;50.836;4.368;2024-01-30T06:12:39;14.20;99.90
35603;DHT22;21725;50.836;4.368;2024-01-30T06:15:40;14.40;99.90
35603;DHT22;21725;50.836;4.368;2024-01-30T06:18:41;14.40;99.90
35603;DHT22;21725;50.836;4.368;2024-01-30T06:21:42;14.20;99.90
35603;DHT22;21725;50.836;4.368;2024-01-30T06:24:44;14.10;99.90
35603;DHT22;21725;50.836;4.368;2024-01-30T06:27:52;14.10;99.90
35603;DHT22;21725;50.836;4.368;2024-01-30T06:30:56;14.40;99.90
35603;DHT22;21725;50.836;4.368;2024-01-30T06:34:01;14.30;99.90
35603;DHT22;21725;50.836;4.368;2024-01-30T06:37:02;14.10;99.90
35603;DHT22;21725;50.836;4.368;2024-01-30T06:40:03;12.80;99.90
35603;DHT22;21725;50.836;4.368;2024-01-30T06:43:06;14.10;99.90
35603;DHT22;21725;50.836;4.368;2024-01-30T06:46:08;14.20;99.90
35603;DHT22;21725;50.836;4.368;2024-01-30T06:49:10;14.40;99.90
35603;DHT22;21725;50.836;4.368;2024-01-30T06:52:10;14.60;99.90
35603;DHT22;21725;50.836;4.368;2024-01-30T06:55:11;14.40;99.90
35603;DHT22;21725;50.836;4.368;2024-01-30T06:58:13;14.40;99.90
35603;DHT22;21725;50.836;4.368;2024-01-30T07:01:14;14.40;99.90
35603;DHT22;21725;50.836;4.368;2024-01-30T07:04:15;14.30;99.90
35603;DHT22;21725;50.836;4.368;2024-01-30T07:07:17;14.50;99.90
35603;DHT22;21725;50.836;4.368;2024-01-30T07:10:18;14.30;99.90
35603;DHT22;21725;50.836;4.368;2024-01-30T07:13:22;14.30;99.90
35603;DHT22;21725;50.836;4.368;2024-01-30T07:16:23;14.20;99.90
35603;DHT22;21725;50.836;4.368;2024-01-30T07:19:24;14.10;99.90
35603;DHT22;21725;50.836;4.368;2024-01-30T07:22:25;14.20;99.90
35603;DHT22;21725;50.836;4.368;2024-01-30T07:25:26;14.10;99.90
35603;DHT22;21725;50.836;4.368;2024-01-30T07:28:30;14.10;99.90
35603;DHT22;21725;50.836;4.368;2024-01-30T07:31:31;14.20;99.90
35603;DHT22;21725;50.836;4.368;2024-01-30T07:34:35;15.50;99.90
35603;DHT22;21725;50.836;4.368;2024-01-30T07:37:36;11.80;99.90
35603;DHT22;21725;50.836;4.368;2024-01-30T07:40:37;16.10;99.90
35603;DHT22;21725;50.836;4.368;2024-01-30T07:43:38;13.80;99.90
35603;DHT22;21725;50.836;4.368;2024-01-30T07:46:39;13.30;99.90
35603;DHT22;21725;50.836;4.368;2024-01-30T07:49:40;13.90;99.90
35603;DHT22;21725;50.836;4.368;2024-01-30T07:52:42;12.80;99.90
35603;DHT22;21725;50.836;4.368;2024-01-30T07:55:43;13.70;99.90
35603;DHT22;21725;50.836;4.368;2024-01-30T07:58:47;14.10;99.90
35603;DHT22;21725;50.836;4.368;2024-01-30T08:01:47;14.10;99.90
35603;DHT22;21725;50.836;4.368;2024-01-30T08:04:48;14.00;99.90
35603;DHT22;21725;50.836;4.368;2024-01-30T08:07:50;14.00;99.90
35603;DHT22;21725;50.836;4.368;2024-01-30T08:10:51;14.00;99.90
35603;DHT22;21725;50.836;4.368;2024-01-30T08:13:52;14.20;99.90
35603;DHT22;21725;50.836;4.368;2024-01-30T08:16:53;14.00;99.90
35603;DHT22;21725;50.836;4.368;2024-01-30T08:19:54;14.00;99.90
35603;DHT22;21725;50.836;4.368;2024-01-30T08:22:55;12.90;99.90
35603;DHT22;21725;50.836;4.368;2024-01-30T08:26:02;14.20;99.90
35603;DHT22;21725;50.836;4.368;2024-01-30T08:29:03;14.40;99.90
35603;DHT22;21725;50.836;4.368;2024-01-30T08:32:09;12.80;99.90
35603;DHT22;21725;50.836;4.368;2024-01-30T08:35:10;14.30;99.90
35603;DHT22;21725;50.836;4.368;2024-01-30T08:38:14;14.50;99.90
35603;DHT22;21725;50.836;4.368;2024-01-30T08:41:15;13.90;99.90
35603;DHT22;21725;50.836;4.368;2024-01-30T08:44:16;15.50;99.90
35603;DHT22;21725;50.836;4.368;2024-01-30T08:47:21;15.00;99.90
35603;DHT22;21725;50.836;4.368;2024-01-30T08:50:22;15.20;99.90
35603;DHT22;21725;50.836;4.368;2024-01-30T08:53:22;15.00;99.90
35603;DHT22;21725;50.836;4.368;2024-01-30T08:56:23;12.80;99.90
35603;DHT22;21725;50.836;4.368;2024-01-30T08:59:24;14.90;99.90
35603;DHT22;21725;50.836;4.368;2024-01-30T09:02:25;15.20;99.90
35603;DHT22;21725;50.836;4.368;2024-01-30T09:05:26;14.90;99.90
35603;DHT22;21725;50.836;4.368;2024-01-30T09:08:27;14.00;99.90
35603;DHT22;21725;50.836;4.368;2024-01-30T09:11:28;14.60;99.90
35603;DHT22;21725;50.836;4.368;2024-01-30T09:14:32;14.80;99.90
35603;DHT22;21725;50.836;4.368;2024-01-30T09:17:33;13.80;99.90
35603;DHT22;21725;50.836;4.368;2024-01-30T09:20:36;14.60;99.90
35603;DHT22;21725;50.836;4.368;2024-01-30T09:23:37;15.00;99.90
35603;DHT22;21725;50.836;4.368;2024-01-30T09:26:38;14.70;99.90
35603;DHT22;21725;50.836;4.368;2024-01-30T09:29:39;14.40;99.90
35603;DHT22;21725;50.836;4.368;2024-01-30T09:32:40;14.20;99.90
35603;DHT22;21725;50.836;4.368;2024-01-30T09:35:41;14.20;99.90
35603;DHT22;21725;50.836;4.368;2024-01-30T09:38:42;14.10;99.90
35603;DHT22;21725;50.836;4.368;2024-01-30T09:44:56;14.00;99.90
35603;DHT22;21725;50.836;4.368;2024-01-30T09:47:59;14.00;99.90
35603;DHT22;21725;50.836;4.368;2024-01-30T09:51:00;14.10;99.90
35603;DHT22;21725;50.836;4.368;2024-01-30T09:54:02;14.00;99.90
35603;DHT22;21725;50.836;4.368;2024-01-30T09:57:04;13.80;99.90
35603;DHT22;21725;50.836;4.368;2024-01-30T10:00:06;14.00;99.90
35603;DHT22;21725;50.836;4.368;2024-01-30T10:03:09;14.00;99.90
35603;DHT22;21725;50.836;4.368;2024-01-30T10:06:11;13.70;99.90
35603;DHT22;21725;50.836;4.368;2024-01-30T10:09:15;13.10;99.90
35603;DHT22;21725;50.836;4.368;2024-01-30T10:12:16;13.60;99.90
35603;DHT22;21725;50.836;4.368;2024-01-30T10:15:18;13.60;99.90
35603;DHT22;21725;50.836;4.368;2024-01-30T10:18:25;13.80;99.90
35603;DHT22;21725;50.836;4.368;2024-01-30T10:21:26;13.60;99.90
35603;DHT22;21725;50.836;4.368;2024-01-30T10:24:27;13.40;99.90
35603;DHT22;21725;50.836;4.368;2024-01-30T10:27:30;13.40;99.90
35603;DHT22;21725;50.836;4.368;2024-01-30T10:30:31;13.40;99.90
35603;DHT22;21725;50.836;4.368;2024-01-30T10:33:33;13.20;99.90
35603;DHT22;21725;50.836;4.368;2024-01-30T10:36:41;13.40;99.90
35603;DHT22;21725;50.836;4.368;2024-01-30T10:39:46;13.50;99.90
35603;DHT22;21725;50.836;4.368;2024-01-30T10:42:47;13.40;99.90
35603;DHT22;21725;50.836;4.368;2024-01-30T10:45:53;13.30;99.90
35603;DHT22;21725;50.836;4.368;2024-01-30T10:48:59;13.30;99.90
35603;DHT22;21725;50.836;4.368;2024-01-30T10:52:01;13.30;99.90
35603;DHT22;21725;50.836;4.368;2024-01-30T10:55:04;13.10;99.90
35603;DHT22;21725;50.836;4.368;2024-01-30T10:58:08;13.00;99.90
35603;DHT22;21725;50.836;4.368;2024-01-30T11:01:15;13.00;99.90
35603;DHT22;21725;50.836;4.368;2024-01-30T11:04:16;13.40;99.90
35603;DHT22;21725;50.836;4.368;2024-01-30T11:07:25;13.00;99.90
35603;DHT22;21725;50.836;4.368;2024-01-30T11:10:27;13.10;99.90
35603;DHT22;21725;50.836;4.368;2024-01-30T11:13:31;13.00;99.90
35603;DHT22;21725;50.836;4.368;2024-01-30T11:16:32;13.00;99.90
35603;DHT22;21725;50.836;4.368;2024-01-30T11:19:33;13.20;99.90
35603;DHT22;21725;50.836;4.368;2024-01-30T11:22:35;12.00;99.90
35603;DHT22;21725;50.836;4.368;2024-01-30T11:25:36;12.80;99.90
35603;DHT22;21725;50.836;4.368;2024-01-30T11:28:38;12.80;99.90
35603;DHT22;21725;50.836;4.368;2024-01-30T11:31:39;10.30;99.90
35603;DHT22;21725;50.836;4.368;2024-01-30T11:34:41;12.10;99.90
35603;DHT22;21725;50.836;4.368;2024-01-30T11:37:43;12.70;99.90
35603;DHT22;21725;50.836;4.368;2024-01-30T11:40:57;13.00;99.90
35603;DHT22;21725;50.836;4.368;2024-01-30T11:43:58;13.10;99.90
35603;DHT22;21725;50.836;4.368;2024-01-30T11:47:02;12.90;99.90
35603;DHT22;21725;50.836;4.368;2024-01-30T11:50:04;13.00;99.90
35603;DHT22;21725;50.836;4.368;2024-01-30T11:53:11;12.60;99.90
35603;DHT22;21725;50.836;4.368;2024-01-30T11:56:13;11.90;99.90
35603;DHT22;21725;50.836;4.368;2024-01-30T11:59:14;12.40;99.90
35603;DHT22;21725;50.836;4.368;2024-01-30T12:02:16;12.40;99.90
35603;DHT22;21725;50.836;4.368;2024-01-30T12:05:22;12.50;99.90
35603;DHT22;21725;50.836;4.368;2024-01-30T12:08:26;12.60;99.90
35603;DHT22;21725;50.836;4.368;2024-01-30T12:11:28;12.20;99.90
35603;DHT22;21725;50.836;4.368;2024-01-30T12:14:33;13.20;99.90
35603;DHT22;21725;50.836;4.368;2024-01-30T12:17:34;12.10;99.90
35603;DHT22;21725;50.836;4.368;2024-01-30T12:20:36;12.40;99.90
35603;DHT22;21725;50.836;4.368;2024-01-30T12:23:37;12.50;99.90
35603;DHT22;21725;50.836;4.368;2024-01-30T12:26:38;12.60;99.90
35603;DHT22;21725;50.836;4.368;2024-01-30T12:29:42;12.90;99.90
35603;DHT22;21725;50.836;4.368;2024-01-30T12:32:44;12.70;99.90
35603;DHT22;21725;50.836;4.368;2024-01-30T12:35:46;12.90;99.90
35603;DHT22;21725;50.836;4.368;2024-01-30T12:38:48;13.00;99.90
35603;DHT22;21725;50.836;4.368;2024-01-30T12:41:52;13.30;99.90
35603;DHT22;21725;50.836;4.368;2024-01-30T12:44:53;12.70;99.90
35603;DHT22;21725;50.836;4.368;2024-01-30T12:47:59;12.00;99.90
35603;DHT22;21725;50.836;4.368;2024-01-30T12:51:00;12.80;99.90
35603;DHT22;21725;50.836;4.368;2024-01-30T12:54:06;12.90;99.90
35603;DHT22;21725;50.836;4.368;2024-01-30T12:57:07;12.30;99.90
35603;DHT22;21725;50.836;4.368;2024-01-30T13:00:08;13.40;99.90
35603;DHT22;21725;50.836;4.368;2024-01-30T13:03:15;13.50;99.90
35603;DHT22;21725;50.836;4.368;2024-01-30T13:06:40;11.70;99.90
35603;DHT22;21725;50.836;4.368;2024-01-30T13:09:47;10.00;99.90
35603;DHT22;21725;50.836;4.368;2024-01-30T13:12:48;13.40;99.90
35603;DHT22;21725;50.836;4.368;2024-01-30T13:15:57;13.50;99.90
35603;DHT22;21725;50.836;4.368;2024-01-30T13:18:58;13.60;99.90
35603;DHT22;21725;50.836;4.368;2024-01-30T13:22:02;13.50;99.90
35603;DHT22;21725;50.836;4.368;2024-01-30T13:25:05;13.10;99.90
35603;DHT22;21725;50.836;4.368;2024-01-30T13:28:07;12.50;99.90
35603;DHT22;21725;50.836;4.368;2024-01-30T13:31:08;13.20;99.90
35603;DHT22;21725;50.836;4.368;2024-01-30T13:34:10;14.10;99.90
35603;DHT22;21725;50.836;4.368;2024-01-30T13:37:21;13.70;99.90
35603;DHT22;21725;50.836;4.368;2024-01-30T13:40:24;13.00;99.90
35603;DHT22;21725;50.836;4.368;2024-01-30T13:43:26;12.90;99.90
35603;DHT22;21725;50.836;4.368;2024-01-30T13:46:30;16.40;99.90
35603;DHT22;21725;50.836;4.368;2024-01-30T13:49:31;12.40;99.90
35603;DHT22;21725;50.836;4.368;2024-01-30T13:52:35;12.90;99.90
35603;DHT22;21725;50.836;4.368;2024-01-30T13:55:36;12.70;99.90
35603;DHT22;21725;50.836;4.368;2024-01-30T13:58:37;12.70;99.90
35603;DHT22;21725;50.836;4.368;2024-01-30T14:01:38;12.70;99.90
35603;DHT22;21725;50.836;4.368;2024-01-30T14:04:42;12.60;99.90
35603;DHT22;21725;50.836;4.368;2024-01-30T14:07:44;14.60;99.90
35603;DHT22;21725;50.836;4.368;2024-01-30T14:10:45;12.50;99.90
35603;DHT22;21725;50.836;4.368;2024-01-30T14:13:46;12.00;99.90
35603;DHT22;21725;50.836;4.368;2024-01-30T14:16:48;11.50;99.90
35603;DHT22;21725;50.836;4.368;2024-01-30T14:19:49;12.70;99.90
35603;DHT22;21725;50.836;4.368;2024-01-30T14:22:53;12.70;99.90
35603;DHT22;21725;50.836;4.368;2024-01-30T14:25:56;12.10;99.90
35603;DHT22;21725;50.836;4.368;2024-01-30T14:28:57;14.10;99.90
35603;DHT22;21725;50.836;4.368;2024-01-30T14:31:58;12.60;99.90
35603;DHT22;21725;50.836;4.368;2024-01-30T14:35:01;12.10;99.90
35603;DHT22;21725;50.836;4.368;2024-01-30T14:38:03;11.30;99.90
35603;DHT22;21725;50.836;4.368;2024-01-30T14:41:05;12.20;99.90
35603;DHT22;21725;50.836;4.368;2024-01-30T14:44:06;9.30;99.90
35603;DHT22;21725;50.836;4.368;2024-01-30T14:47:08;12.60;99.90
35603;DHT22;21725;50.836;4.368;2024-01-30T14:50:10;12.50;99.90
35603;DHT22;21725;50.836;4.368;2024-01-30T14:53:11;12.50;99.90
35603;DHT22;21725;50.836;4.368;2024-01-30T14:56:16;13.00;99.90
35603;DHT22;21725;50.836;4.368;2024-01-30T14:59:21;12.90;99.90
35603;DHT22;21725;50.836;4.368;2024-01-30T15:02:22;11.50;99.90
35603;DHT22;21725;50.836;4.368;2024-01-30T15:05:24;12.60;99.90
35603;DHT22;21725;50.836;4.368;2024-01-30T15:08:26;11.30;99.90
35603;DHT22;21725;50.836;4.368;2024-01-30T15:11:26;11.10;99.90
35603;DHT22;21725;50.836;4.368;2024-01-30T15:14:27;12.90;99.90
35603;DHT22;21725;50.836;4.368;2024-01-30T15:17:29;12.70;99.90
35603;DHT22;21725;50.836;4.368;2024-01-30T15:20:30;9.50;99.90
35603;DHT22;21725;50.836;4.368;2024-01-30T15:23:32;12.40;99.90
35603;DHT22;21725;50.836;4.368;2024-01-30T15:26:33;8.80;99.90
35603;DHT22;21725;50.836;4.368;2024-01-30T15:29:34;12.60;99.90
35603;DHT22;21725;50.836;4.368;2024-01-30T15:32:41;12.50;99.90
35603;DHT22;21725;50.836;4.368;2024-01-30T15:35:47;12.30;99.90
35603;DHT22;21725;50.836;4.368;2024-01-30T15:38:50;12.20;99.90
35603;DHT22;21725;50.836;4.368;2024-01-30T15:41:51;12.00;99.90
35603;DHT22;21725;50.836;4.368;2024-01-30T15:44:53;12.30;99.90
35603;DHT22;21725;50.836;4.368;2024-01-30T15:47:57;12.60;99.90
35603;DHT22;21725;50.836;4.368;2024-01-30T15:50:59;12.60;99.90
35603;DHT22;21725;50.836;4.368;2024-01-30T15:54:00;12.40;99.90
35603;DHT22;21725;50.836;4.368;2024-01-30T15:57:03;14.20;99.90
35603;DHT22;21725;50.836;4.368;2024-01-30T16:00:08;12.70;99.90
35603;DHT22;21725;50.836;4.368;2024-01-30T16:03:10;12.40;99.90
35603;DHT22;21725;50.836;4.368;2024-01-30T16:06:15;12.20;99.90
35603;DHT22;21725;50.836;4.368;2024-01-30T16:09:16;11.90;99.90
35603;DHT22;21725;50.836;4.368;2024-01-30T16:12:17;12.50;99.90
35603;DHT22;21725;50.836;4.368;2024-01-30T16:15:22;12.60;99.90
35603;DHT22;21725;50.836;4.368;2024-01-30T16:18:23;12.80;99.90
35603;DHT22;21725;50.836;4.368;2024-01-30T16:21:27;12.50;99.90
35603;DHT22;21725;50.836;4.368;2024-01-30T16:24:49;12.70;99.90
35603;DHT22;21725;50.836;4.368;2024-01-30T16:27:53;12.10;99.90
35603;DHT22;21725;50.836;4.368;2024-01-30T16:30:54;12.10;99.90
35603;DHT22;21725;50.836;4.368;2024-01-30T16:33:55;12.20;99.90
35603;DHT22;21725;50.836;4.368;2024-01-30T16:36:57;8.80;99.90
35603;DHT22;21725;50.836;4.368;2024-01-30T16:39:59;11.90;99.90
35603;DHT22;21725;50.836;4.368;2024-01-30T16:42:59;11.70;99.90
35603;DHT22;21725;50.836;4.368;2024-01-30T16:46:01;11.70;99.90
35603;DHT22;21725;50.836;4.368;2024-01-30T16:49:06;11.90;99.90
35603;DHT22;21725;50.836;4.368;2024-01-30T16:52:07;12.50;99.90
35603;DHT22;21725;50.836;4.368;2024-01-30T16:55:09;11.00;99.90
35603;DHT22;21725;50.836;4.368;2024-01-30T16:58:10;11.80;99.90
35603;DHT22;21725;50.836;4.368;2024-01-30T17:01:12;11.80;99.90
35603;DHT22;21725;50.836;4.368;2024-01-30T17:04:17;10.60;99.90
35603;DHT22;21725;50.836;4.368;2024-01-30T17:07:21;11.60;99.90
35603;DHT22;21725;50.836;4.368;2024-01-30T17:10:24;11.60;99.90
35603;DHT22;21725;50.836;4.368;2024-01-30T17:13:25;11.40;99.90
35603;DHT22;21725;50.836;4.368;2024-01-30T17:16:26;11.30;99.90
35603;DHT22;21725;50.836;4.368;2024-01-30T17:19:27;10.80;99.90
35603;DHT22;21725;50.836;4.368;2024-01-30T17:22:28;9.00;99.90
35603;DHT22;21725;50.836;4.368;2024-01-30T17:25:29;11.20;99.90
35603;DHT22;21725;50.836;4.368;2024-01-30T17:28:32;11.20;99.90
35603;DHT22;21725;50.836;4.368;2024-01-30T17:31:33;11.30;99.90
35603;DHT22;21725;50.836;4.368;2024-01-30T17:34:34;11.50;99.90
35603;DHT22;21725;50.836;4.368;2024-01-30T17:37:38;11.80;99.90
35603;DHT22;21725;50.836;4.368;2024-01-30T17:40:39;11.70;99.90
35603;DHT22;21725;50.836;4.368;2024-01-30T17:43:40;11.90;99.90
35603;DHT22;21725;50.836;4.368;2024-01-30T17:46:43;11.70;99.90
35603;DHT22;21725;50.836;4.368;2024-01-30T17:49:43;11.70;99.90
35603;DHT22;21725;50.836;4.368;2024-01-30T17:52:44;11.80;99.90
35603;DHT22;21725;50.836;4.368;2024-01-30T17:55:45;11.70;99.90
35603;DHT22;21725;50.836;4.368;2024-01-30T17:58:46;11.70;99.90
35603;DHT22;21725;50.836;4.368;2024-01-30T18:01:50;11.60;99.90
35603;DHT22;21725;50.836;4.368;2024-01-30T18:04:51;11.40;99.90
35603;DHT22;21725;50.836;4.368;2024-01-30T18:07:52;11.40;99.90
35603;DHT22;21725;50.836;4.368;2024-01-30T18:10:52;11.30;99.90
35603;DHT22;21725;50.836;4.368;2024-01-30T18:13:53;11.70;99.90
35603;DHT22;21725;50.836;4.368;2024-01-30T18:16:56;10.40;99.90
35603;DHT22;21725;50.836;4.368;2024-01-30T18:19:57;11.80;99.90
35603;DHT22;21725;50.836;4.368;2024-01-30T18:22:57;11.70;99.90
35603;DHT22;21725;50.836;4.368;2024-01-30T18:25:58;8.70;99.90
35603;DHT22;21725;50.836;4.368;2024-01-30T18:29:02;11.50;99.90
35603;DHT22;21725;50.836;4.368;2024-01-30T18:32:04;9.00;99.90
35603;DHT22;21725;50.836;4.368;2024-01-30T18:35:05;12.10;99.90
35603;DHT22;21725;50.836;4.368;2024-01-30T18:38:06;11.80;99.90
35603;DHT22;21725;50.836;4.368;2024-01-30T18:41:07;15.00;99.90
35603;DHT22;21725;50.836;4.368;2024-01-30T18:44:08;11.60;99.90
35603;DHT22;21725;50.836;4.368;2024-01-30T18:47:11;11.30;99.90
35603;DHT22;21725;50.836;4.368;2024-01-30T18:50:15;11.30;99.90
35603;DHT22;21725;50.836;4.368;2024-01-30T18:53:16;11.40;99.90
35603;DHT22;21725;50.836;4.368;2024-01-30T18:56:17;11.30;99.90
35603;DHT22;21725;50.836;4.368;2024-01-30T18:59:20;11.40;99.90
35603;DHT22;21725;50.836;4.368;2024-01-30T19:02:21;11.70;99.90
35603;DHT22;21725;50.836;4.368;2024-01-30T19:05:22;11.50;99.90
35603;DHT22;21725;50.836;4.368;2024-01-30T19:08:23;10.80;99.90
35603;DHT22;21725;50.836;4.368;2024-01-30T19:11:24;11.80;99.90
35603;DHT22;21725;50.836;4.368;2024-01-30T19:14:24;11.70;99.90
35603;DHT22;21725;50.836;4.368;2024-01-30T19:17:25;11.70;99.90
35603;DHT22;21725;50.836;4.368;2024-01-30T19:20:27;11.60;99.90
35603;DHT22;21725;50.836;4.368;2024-01-30T19:23:28;11.50;99.90
35603;DHT22;21725;50.836;4.368;2024-01-30T19:26:29;11.40;99.90
35603;DHT22;21725;50.836;4.368;2024-01-30T19:29:30;11.30;99.90
35603;DHT22;21725;50.836;4.368;2024-01-30T19:32:31;11.40;99.90
35603;DHT22;21725;50.836;4.368;2024-01-30T19:35:32;11.40;99.90
35603;DHT22;21725;50.836;4.368;2024-01-30T19:38:33;11.60;99.90
35603;DHT22;21725;50.836;4.368;2024-01-30T19:41:34;11.90;99.90
35603;DHT22;21725;50.836;4.368;2024-01-30T19:44:35;10.80;99.90
35603;DHT22;21725;50.836;4.368;2024-01-30T19:47:38;11.50;99.90
35603;DHT22;21725;50.836;4.368;2024-01-30T19:50:39;11.50;99.90
35603;DHT22;21725;50.836;4.368;2024-01-30T19:53:40;11.50;99.90
35603;DHT22;21725;50.836;4.368;2024-01-30T19:56:43;13.80;99.90
35603;DHT22;21725;50.836;4.368;2024-01-30T19:59:45;11.20;99.90